Time;durP1;ratioP1;P1;durP2;ratioP2;P2;SDS_P1;SDS_P2;PMS_P1;PMS_P2;Temp;Humidity;BMP_temperature;BMP_pressure;BME280_temperature;BME280_humidity;BME280_pressure;Samples;Min_cycle;Max_cycle;Signal;HPM_P1;HPM_P2
2022/11/14 00:00:28;;;;;;;14.73;5.22;;;;;;;;;;5043765;28;20376;-68
2022/11/14 00:03:09;;;;;;;15.65;5.55;;;;;;;;;;5040917;28;20069;-67
2022/11/14 00:05:43;;;;;;;10.55;5.35;;;;;;;;;;5042809;28;20090;-67
2022/11/14 00:08:22;;;;;;;8.98;4.93;;;;;;;;;;5036781;28;20098;-66
2022/11/14 00:10:49;;;;;;;10.73;5.10;;;;;;;;;;5040799;28;20048;-71
2022/11/14 00:13:17;;;;;;;10.18;5.20;;;;;;;;;;5039351;28;20056;-67
2022/11/14 00:15:43;;;;;;;12.93;4.80;;;;;;;;;;5041802;28;20045;-71
2022/11/14 00:18:09;;;;;;;9.32;4.75;;;;;;;;;;5041298;28;20060;-68
2022/11/14 00:20:35;;;;;;;13.68;4.70;;;;;;;;;;5033041;28;20045;-70
2022/11/14 00:23:01;;;;;;;10.80;4.80;;;;;;;;;;5039702;28;20043;-69
2022/11/14 00:25:27;;;;;;;9.63;4.47;;;;;;;;;;5043921;28;20494;-68
2022/11/14 00:27:57;;;;;;;12.07;5.22;;;;;;;;;;5041516;28;20033;-66
2022/11/14 00:30:24;;;;;;;12.45;4.93;;;;;;;;;;5038731;28;20537;-67
2022/11/14 00:32:49;;;;;;;9.57;5.20;;;;;;;;;;5042635;28;20518;-67
2022/11/14 00:35:15;;;;;;;10.35;5.47;;;;;;;;;;5040874;28;20060;-68
2022/11/14 00:37:41;;;;;;;11.60;5.07;;;;;;;;;;5033642;28;20518;-69
2022/11/14 00:40:07;;;;;;;11.90;5.00;;;;;;;;;;5041226;28;20045;-70
2022/11/14 00:42:34;;;;;;;12.25;4.82;;;;;;;;;;5039697;28;20402;-69
2022/11/14 00:44:59;;;;;;;10.65;4.82;;;;;;;;;;5038095;28;20045;-66
2022/11/14 00:47:25;;;;;;;11.18;5.22;;;;;;;;;;5018387;28;20044;-68
2022/11/14 00:49:51;;;;;;;12.57;5.00;;;;;;;;;;5040112;28;20041;-68
2022/11/14 00:52:17;;;;;;;13.43;4.82;;;;;;;;;;5035527;28;20053;-69
2022/11/14 00:54:43;;;;;;;16.75;5.53;;;;;;;;;;5035625;28;20056;-67
2022/11/14 00:57:08;;;;;;;11.07;4.53;;;;;;;;;;5025208;28;20836;-66
2022/11/14 00:59:34;;;;;;;11.82;5.00;;;;;;;;;;5038885;28;20124;-67
2022/11/14 01:02:00;;;;;;;11.57;4.35;;;;;;;;;;5041330;28;20044;-66
2022/11/14 01:04:27;;;;;;;11.20;5.00;;;;;;;;;;5038762;28;20041;-67
2022/11/14 01:06:52;;;;;;;14.40;4.10;;;;;;;;;;5041258;28;20431;-69
2022/11/14 01:09:18;;;;;;;10.60;4.55;;;;;;;;;;5036188;28;20144;-67
2022/11/14 01:11:44;;;;;;;13.50;4.72;;;;;;;;;;5037015;28;20037;-70
2022/11/14 01:14:10;;;;;;;9.93;4.65;;;;;;;;;;5041208;28;20355;-67
2022/11/14 01:16:36;;;;;;;10.38;4.10;;;;;;;;;;5043133;28;20111;-66
2022/11/14 01:19:02;;;;;;;8.25;4.10;;;;;;;;;;5045060;28;20057;-69
2022/11/14 01:21:29;;;;;;;11.52;3.88;;;;;;;;;;5044096;28;20041;-67
2022/11/14 01:23:55;;;;;;;8.55;3.95;;;;;;;;;;5045207;28;20041;-67
2022/11/14 01:26:21;;;;;;;14.55;4.25;;;;;;;;;;5045391;28;20045;-69
2022/11/14 01:28:47;;;;;;;14.98;4.10;;;;;;;;;;5043199;28;20041;-66
2022/11/14 01:31:17;;;;;;;7.65;4.00;;;;;;;;;;5044130;28;20051;-65
2022/11/14 01:33:43;;;;;;;11.88;4.22;;;;;;;;;;5039670;28;20037;-66
2022/11/14 01:36:09;;;;;;;7.03;3.60;;;;;;;;;;5042983;28;20490;-67
2022/11/14 01:38:36;;;;;;;8.98;3.72;;;;;;;;;;5045992;28;20349;-68
2022/11/14 01:41:03;;;;;;;9.07;3.20;;;;;;;;;;5045611;28;20068;-66
2022/11/14 01:43:37;;;;;;;7.53;3.90;;;;;;;;;;5038552;28;20037;-70
2022/11/14 01:46:11;;;;;;;9.70;3.75;;;;;;;;;;5043727;28;20041;-68
2022/11/14 01:48:58;;;;;;;9.23;3.85;;;;;;;;;;5042465;28;20094;-67
2022/11/14 01:51:32;;;;;;;12.68;5.72;;;;;;;;;;5041881;28;20071;-69
2022/11/14 01:54:12;;;;;;;11.30;4.53;;;;;;;;;;5037597;28;20060;-69
2022/11/14 01:56:44;;;;;;;10.35;4.70;;;;;;;;;;5041030;28;20052;-66
2022/11/14 01:59:18;;;;;;;10.55;4.65;;;;;;;;;;5042728;28;20045;-66
2022/11/14 02:01:50;;;;;;;11.05;4.68;;;;;;;;;;5046136;28;20045;-67
2022/11/14 02:04:29;;;;;;;10.05;4.50;;;;;;;;;;5042744;28;20076;-67
2022/11/14 02:06:59;;;;;;;9.48;5.28;;;;;;;;;;5043242;28;20100;-67
2022/11/14 02:09:28;;;;;;;9.40;5.35;;;;;;;;;;5038009;28;20045;-66
2022/11/14 02:11:56;;;;;;;11.30;5.25;;;;;;;;;;5036075;28;20406;-68
2022/11/14 02:14:22;;;;;;;12.88;5.72;;;;;;;;;;5045124;28;20049;-68
2022/11/14 02:16:48;;;;;;;18.85;5.82;;;;;;;;;;5038399;28;20562;-67
2022/11/14 02:19:14;;;;;;;13.75;6.07;;;;;;;;;;5040798;28;20511;-66
2022/11/14 02:21:40;;;;;;;10.90;5.15;;;;;;;;;;5026559;28;20084;-69
2022/11/14 02:24:10;;;;;;;13.63;6.18;;;;;;;;;;5043784;28;20053;-67
2022/11/14 02:26:37;;;;;;;14.90;5.82;;;;;;;;;;5046250;28;20059;-66
2022/11/14 02:29:04;;;;;;;7.05;5.15;;;;;;;;;;5044064;28;20041;-67
2022/11/14 02:31:30;;;;;;;14.70;5.70;;;;;;;;;;5040390;28;20041;-65
2022/11/14 02:33:56;;;;;;;12.30;5.82;;;;;;;;;;5042841;28;20052;-68
2022/11/14 02:36:22;;;;;;;15.60;6.30;;;;;;;;;;5041722;28;20095;-66
2022/11/14 02:38:48;;;;;;;14.60;5.93;;;;;;;;;;5037611;28;20061;-66
2022/11/14 02:41:14;;;;;;;19.17;6.13;;;;;;;;;;5035962;28;20357;-69
2022/11/14 02:43:40;;;;;;;14.68;5.80;;;;;;;;;;5040078;28;20512;-66
2022/11/14 02:46:06;;;;;;;11.98;5.30;;;;;;;;;;5041592;28;20092;-66
2022/11/14 02:48:31;;;;;;;9.25;4.93;;;;;;;;;;5043614;28;20040;-68
2022/11/14 02:50:57;;;;;;;12.02;5.00;;;;;;;;;;5040425;28;20045;-67
2022/11/14 02:53:23;;;;;;;12.73;4.85;;;;;;;;;;5041728;28;20045;-68
2022/11/14 02:55:49;;;;;;;9.73;4.95;;;;;;;;;;5036970;28;20056;-68
2022/11/14 02:58:15;;;;;;;12.43;5.05;;;;;;;;;;5041106;28;20057;-68
2022/11/14 03:00:41;;;;;;;13.02;4.82;;;;;;;;;;5039767;28;20474;-68
2022/11/14 03:03:07;;;;;;;10.82;4.50;;;;;;;;;;5040428;28;20508;-68
2022/11/14 03:05:32;;;;;;;11.60;4.72;;;;;;;;;;5037920;28;20067;-68
2022/11/14 03:07:58;;;;;;;8.35;4.63;;;;;;;;;;5038546;28;20379;-66
2022/11/14 03:10:24;;;;;;;10.25;4.13;;;;;;;;;;5040934;28;20091;-68
2022/11/14 03:12:57;;;;;;;8.88;4.15;;;;;;;;;;5035258;28;20475;-66
2022/11/14 03:15:23;;;;;;;13.95;4.70;;;;;;;;;;5034262;28;20045;-65
2022/11/14 03:17:50;;;;;;;16.20;5.20;;;;;;;;;;5042107;28;20048;-65
2022/11/14 03:20:17;;;;;;;11.48;4.57;;;;;;;;;;5039585;28;20125;-67
2022/11/14 03:22:43;;;;;;;13.20;4.57;;;;;;;;;;5039701;28;20509;-66
2022/11/14 03:25:09;;;;;;;11.70;4.40;;;;;;;;;;5026114;28;20049;-65
2022/11/14 03:27:35;;;;;;;9.52;4.63;;;;;;;;;;5037362;28;20107;-65
2022/11/14 03:30:01;;;;;;;10.50;5.05;;;;;;;;;;5040234;28;20119;-70
2022/11/14 03:32:27;;;;;;;14.13;5.03;;;;;;;;;;5039854;28;20405;-64
2022/11/14 03:34:53;;;;;;;10.85;4.63;;;;;;;;;;5039206;28;20060;-69
2022/11/14 03:37:19;;;;;;;11.82;4.82;;;;;;;;;;5041632;28;20056;-65
2022/11/14 03:39:44;;;;;;;9.27;4.57;;;;;;;;;;5034842;28;20045;-65
2022/11/14 03:42:10;;;;;;;12.10;5.00;;;;;;;;;;5043842;28;20146;-66
2022/11/14 03:44:36;;;;;;;8.32;4.35;;;;;;;;;;5040773;28;20049;-65
2022/11/14 03:47:02;;;;;;;10.43;4.80;;;;;;;;;;5042737;28;20044;-67
2022/11/14 03:49:28;;;;;;;9.35;4.35;;;;;;;;;;5036224;28;20080;-68
2022/11/14 03:51:54;;;;;;;10.40;4.82;;;;;;;;;;5041541;28;20045;-68
2022/11/14 03:54:20;;;;;;;12.40;4.97;;;;;;;;;;5043683;28;20045;-66
2022/11/14 03:56:46;;;;;;;9.98;4.72;;;;;;;;;;5040821;28;20410;-66
2022/11/14 03:59:12;;;;;;;13.52;4.90;;;;;;;;;;5036808;28;20049;-64
2022/11/14 04:01:38;;;;;;;14.90;5.18;;;;;;;;;;5044253;28;20049;-69
2022/11/14 04:04:03;;;;;;;12.20;4.85;;;;;;;;;;5039455;28;20945;-67
2022/11/14 04:06:29;;;;;;;11.38;4.80;;;;;;;;;;5039279;28;20045;-66
2022/11/14 04:08:55;;;;;;;9.90;4.78;;;;;;;;;;5041176;28;20070;-66
2022/11/14 04:11:21;;;;;;;11.02;4.47;;;;;;;;;;5036006;28;20466;-68
2022/11/14 04:13:47;;;;;;;12.13;4.90;;;;;;;;;;5043234;28;20037;-67
2022/11/14 04:16:13;;;;;;;13.55;5.47;;;;;;;;;;5036767;28;20060;-65
2022/11/14 04:18:39;;;;;;;12.10;5.75;;;;;;;;;;5040084;28;20045;-66
2022/11/14 04:21:05;;;;;;;10.82;5.68;;;;;;;;;;5045835;28;20052;-67
2022/11/14 04:23:31;;;;;;;12.35;5.47;;;;;;;;;;5043196;28;20128;-65
2022/11/14 04:25:56;;;;;;;8.88;5.75;;;;;;;;;;5035003;28;20061;-67
2022/11/14 04:28:22;;;;;;;17.17;5.53;;;;;;;;;;5042415;28;20057;-72
2022/11/14 04:30:48;;;;;;;12.18;5.18;;;;;;;;;;5037949;28;20063;-66
2022/11/14 04:33:14;;;;;;;8.35;5.00;;;;;;;;;;5040688;28;20054;-65
2022/11/14 04:35:40;;;;;;;11.98;5.60;;;;;;;;;;5043089;28;20060;-66
2022/11/14 04:38:06;;;;;;;10.20;5.07;;;;;;;;;;5039092;28;20155;-65
2022/11/14 04:40:32;;;;;;;7.53;4.75;;;;;;;;;;5042089;28;20040;-65
2022/11/14 04:42:58;;;;;;;15.98;6.35;;;;;;;;;;5035968;28;20351;-67
2022/11/14 04:45:24;;;;;;;12.50;5.05;;;;;;;;;;5039870;28;20045;-67
2022/11/14 04:47:50;;;;;;;12.13;5.07;;;;;;;;;;5041795;28;20045;-65
2022/11/14 04:50:16;;;;;;;11.98;4.72;;;;;;;;;;5042389;28;20103;-65
2022/11/14 04:52:42;;;;;;;9.68;5.07;;;;;;;;;;5038610;28;20501;-69
2022/11/14 04:55:08;;;;;;;13.15;4.82;;;;;;;;;;5039677;28;20075;-66
2022/11/14 04:57:34;;;;;;;14.40;5.63;;;;;;;;;;5042096;28;20498;-66
2022/11/14 04:59:59;;;;;;;14.60;4.80;;;;;;;;;;5038589;28;20051;-65
2022/11/14 05:02:25;;;;;;;11.93;5.22;;;;;;;;;;5034886;28;20056;-68
2022/11/14 05:04:51;;;;;;;6.90;4.53;;;;;;;;;;5040791;28;20492;-65
2022/11/14 05:07:17;;;;;;;15.68;5.25;;;;;;;;;;5039947;28;20183;-67
2022/11/14 05:09:43;;;;;;;14.52;4.97;;;;;;;;;;5040861;28;20406;-67
2022/11/14 05:12:09;;;;;;;10.20;5.60;;;;;;;;;;5044048;28;20060;-66
2022/11/14 05:14:35;;;;;;;11.93;4.63;;;;;;;;;;5039253;28;20048;-65
2022/11/14 05:17:01;;;;;;;10.63;5.35;;;;;;;;;;5041433;28;20163;-66
2022/11/14 05:19:26;;;;;;;12.32;4.97;;;;;;;;;;5041050;28;20536;-66
2022/11/14 05:21:53;;;;;;;13.15;4.80;;;;;;;;;;5041404;28;20541;-66
2022/11/14 05:24:18;;;;;;;13.68;5.28;;;;;;;;;;5039161;28;20033;-66
2022/11/14 05:26:44;;;;;;;10.07;5.00;;;;;;;;;;5042557;28;20052;-70
2022/11/14 05:29:10;;;;;;;9.57;5.10;;;;;;;;;;5033526;28;20053;-66
2022/11/14 05:31:36;;;;;;;11.25;4.80;;;;;;;;;;5040452;28;20115;-65
2022/11/14 05:34:02;;;;;;;12.27;4.78;;;;;;;;;;5042365;28;20047;-67
2022/11/14 05:36:28;;;;;;;9.57;4.57;;;;;;;;;;5034747;28;20061;-70
2022/11/14 05:38:54;;;;;;;13.52;5.57;;;;;;;;;;5026497;28;20048;-68
2022/11/14 05:41:19;;;;;;;15.20;5.18;;;;;;;;;;5033798;28;20417;-66
2022/11/14 05:43:46;;;;;;;12.88;5.20;;;;;;;;;;5042087;28;20048;-65
2022/11/14 05:46:14;;;;;;;17.50;5.25;;;;;;;;;;5031134;28;20045;-72
2022/11/14 05:48:41;;;;;;;8.48;5.03;;;;;;;;;;5037765;28;20049;-68
2022/11/14 05:51:10;;;;;;;9.45;5.45;;;;;;;;;;5035830;28;21527;-71
2022/11/14 05:53:36;;;;;;;13.32;5.20;;;;;;;;;;5044188;28;20045;-72
2022/11/14 05:56:09;;;;;;;11.93;4.95;;;;;;;;;;5034040;28;20118;-69
2022/11/14 05:58:35;;;;;;;14.48;5.65;;;;;;;;;;5032936;28;20049;-65
2022/11/14 06:01:09;;;;;;;11.45;5.15;;;;;;;;;;5041076;28;20068;-69
2022/11/14 06:03:38;;;;;;;13.63;5.75;;;;;;;;;;5045713;28;20106;-62
2022/11/14 06:06:06;;;;;;;21.70;5.50;;;;;;;;;;5040627;28;20403;-69
2022/11/14 06:08:33;;;;;;;10.77;5.70;;;;;;;;;;5042731;28;20090;-65
2022/11/14 06:11:07;;;;;;;17.85;5.50;;;;;;;;;;5046992;28;20050;-65
2022/11/14 06:13:33;;;;;;;;;;;;;;;;;;5027311;28;20048;-66
2022/11/14 06:16:07;;;;;;;16.75;5.40;;;;;;;;;;5044621;28;20176;-66
2022/11/14 06:18:34;;;;;;;24.73;6.13;;;;;;;;;;5047312;28;20461;-66
2022/11/14 06:21:05;;;;;;;10.32;6.22;;;;;;;;;;5041251;28;20095;-67
2022/11/14 06:23:31;;;;;;;21.17;5.63;;;;;;;;;;5040232;28;20037;-66
2022/11/14 06:26:02;;;;;;;16.83;6.35;;;;;;;;;;5040847;28;20045;-66
2022/11/14 06:28:28;;;;;;;12.13;5.78;;;;;;;;;;5044010;28;20759;-67
2022/11/14 06:31:01;;;;;;;11.85;5.30;;;;;;;;;;5023923;28;20040;-69
2022/11/14 06:33:31;;;;;;;19.00;5.55;;;;;;;;;;5038862;28;20052;-65
2022/11/14 06:36:03;;;;;;;11.80;4.57;;;;;;;;;;5038321;28;20106;-67
2022/11/14 06:38:33;;;;;;;19.33;5.45;;;;;;;;;;5017842;28;20057;-67
2022/11/14 06:41:09;;;;;;;11.38;5.15;;;;;;;;;;5043057;28;20072;-67
2022/11/14 06:43:36;;;;;;;20.48;5.35;;;;;;;;;;5041590;28;20045;-68
2022/11/14 06:46:03;;;;;;;12.43;5.22;;;;;;;;;;5040852;28;20056;-65
2022/11/14 06:48:30;;;;;;;14.50;5.35;;;;;;;;;;5040844;28;20041;-65
2022/11/14 06:50:57;;;;;;;14.27;5.80;;;;;;;;;;5035499;28;20427;-69
2022/11/14 06:53:24;;;;;;;13.13;5.43;;;;;;;;;;5037028;28;20934;-66
2022/11/14 06:56:00;;;;;;;15.80;5.00;;;;;;;;;;5039882;28;20084;-66
2022/11/14 06:58:31;;;;;;;18.05;5.88;;;;;;;;;;5044695;28;20068;-68
2022/11/14 07:01:11;;;;;;;12.93;6.00;;;;;;;;;;5040106;28;20052;-68
2022/11/14 07:03:38;;;;;;;14.57;5.78;;;;;;;;;;5041042;28;20494;-69
2022/11/14 07:06:05;;;;;;;16.38;5.90;;;;;;;;;;5045404;28;20102;-67
2022/11/14 07:08:32;;;;;;;14.75;5.75;;;;;;;;;;5044595;28;20048;-67
2022/11/14 07:11:09;;;;;;;12.68;4.90;;;;;;;;;;5044809;28;20518;-67
2022/11/14 07:13:36;;;;;;;9.02;5.13;;;;;;;;;;5044050;28;20049;-66
2022/11/14 07:16:02;;;;;;;19.95;5.18;;;;;;;;;;5040456;28;20049;-65
2022/11/14 07:18:30;;;;;;;18.65;6.03;;;;;;;;;;5045735;28;20461;-64
2022/11/14 07:21:02;;;;;;;11.77;5.28;;;;;;;;;;5043001;28;20049;-68
2022/11/14 07:23:29;;;;;;;18.88;5.00;;;;;;;;;;5043715;28;20049;-65
2022/11/14 07:25:54;;;;;;;16.42;5.03;;;;;;;;;;5024403;28;20112;-65
2022/11/14 07:28:20;;;;;;;14.70;5.95;;;;;;;;;;5039978;28;20359;-68
2022/11/14 07:30:46;;;;;;;13.82;5.55;;;;;;;;;;5041102;28;20094;-67
2022/11/14 07:33:12;;;;;;;14.75;5.30;;;;;;;;;;5039287;28;20092;-67
2022/11/14 07:35:38;;;;;;;18.13;7.13;;;;;;;;;;5043142;28;20048;-69
2022/11/14 07:38:05;;;;;;;17.52;5.90;;;;;;;;;;5042197;28;20049;-69
2022/11/14 07:40:32;;;;;;;14.93;5.85;;;;;;;;;;5042063;28;20053;-66
2022/11/14 07:42:59;;;;;;;21.48;6.30;;;;;;;;;;5043615;28;20318;-67
2022/11/14 07:45:27;;;;;;;17.75;5.38;;;;;;;;;;5041217;28;20049;-68
2022/11/14 07:47:54;;;;;;;11.65;5.75;;;;;;;;;;5043839;28;20091;-65
2022/11/14 07:50:20;;;;;;;22.10;5.53;;;;;;;;;;5031536;28;20065;-64
2022/11/14 07:52:56;;;;;;;18.77;5.95;;;;;;;;;;5033801;28;20049;-68
2022/11/14 07:55:22;;;;;;;15.00;5.40;;;;;;;;;;5040711;28;20049;-67
2022/11/14 07:57:52;;;;;;;18.17;5.82;;;;;;;;;;5026260;28;20055;-67
2022/11/14 08:00:17;;;;;;;19.25;5.57;;;;;;;;;;5038192;28;20045;-65
2022/11/14 08:02:45;;;;;;;31.08;6.40;;;;;;;;;;5030515;28;20134;-65
2022/11/14 08:05:11;;;;;;;20.98;6.10;;;;;;;;;;5038100;28;20271;-64
2022/11/14 08:07:37;;;;;;;22.08;7.82;;;;;;;;;;5038391;28;20056;-69
2022/11/14 08:10:05;;;;;;;20.10;6.10;;;;;;;;;;5033194;28;20040;-67
2022/11/14 08:12:31;;;;;;;12.60;5.50;;;;;;;;;;5040062;28;20053;-66
2022/11/14 08:14:56;;;;;;;17.20;6.53;;;;;;;;;;5033354;28;20043;-68
2022/11/14 08:17:23;;;;;;;19.58;6.88;;;;;;;;;;5040220;28;20064;-68
2022/11/14 08:19:49;;;;;;;19.60;5.93;;;;;;;;;;5016434;28;20570;-67
2022/11/14 08:22:15;;;;;;;22.35;5.70;;;;;;;;;;5039999;28;20458;-66
2022/11/14 08:24:41;;;;;;;15.30;5.20;;;;;;;;;;5038312;28;20049;-67
2022/11/14 08:27:07;;;;;;;12.95;5.15;;;;;;;;;;5040300;28;20053;-67
2022/11/14 08:29:33;;;;;;;19.63;5.90;;;;;;;;;;5042161;28;20422;-70
2022/11/14 08:31:59;;;;;;;16.52;5.22;;;;;;;;;;5023276;28;20089;-65
2022/11/14 08:34:25;;;;;;;17.60;4.97;;;;;;;;;;5037004;28;20048;-65
2022/11/14 08:36:51;;;;;;;18.23;4.70;;;;;;;;;;5031043;28;20049;-65
2022/11/14 08:39:16;;;;;;;20.88;4.97;;;;;;;;;;5033917;28;20069;-67
2022/11/14 08:41:42;;;;;;;13.02;4.90;;;;;;;;;;5025615;28;20242;-65
2022/11/14 08:44:08;;;;;;;20.88;5.20;;;;;;;;;;5015827;28;20098;-65
2022/11/14 08:46:34;;;;;;;14.98;5.15;;;;;;;;;;5040654;28;20053;-64
2022/11/14 08:49:00;;;;;;;14.35;4.07;;;;;;;;;;5030202;28;20483;-69
2022/11/14 08:51:26;;;;;;;14.82;4.70;;;;;;;;;;5025916;28;20037;-66
2022/11/14 08:53:51;;;;;;;13.75;4.30;;;;;;;;;;5036874;28;20045;-67
2022/11/14 08:56:17;;;;;;;18.33;4.20;;;;;;;;;;5024721;28;20410;-67
2022/11/14 08:58:43;;;;;;;13.57;4.25;;;;;;;;;;5028818;28;20057;-65
2022/11/14 09:01:09;;;;;;;13.18;3.47;;;;;;;;;;5029733;28;20505;-67
2022/11/14 09:03:35;;;;;;;23.00;3.67;;;;;;;;;;5026293;28;20048;-67
2022/11/14 09:06:02;;;;;;;19.65;4.00;;;;;;;;;;5026130;28;20498;-65
2022/11/14 09:08:28;;;;;;;18.80;4.25;;;;;;;;;;5026224;28;20047;-65
2022/11/14 09:10:58;;;;;;;21.10;4.22;;;;;;;;;;5028664;28;20049;-66
2022/11/14 09:13:24;;;;;;;10.40;3.40;;;;;;;;;;5037597;28;20045;-68
2022/11/14 09:15:50;;;;;;;13.40;4.53;;;;;;;;;;5040009;28;20049;-67
2022/11/14 09:18:17;;;;;;;11.02;3.75;;;;;;;;;;5026891;28;20387;-65
2022/11/14 09:20:43;;;;;;;12.50;3.35;;;;;;;;;;5025610;28;20515;-68
2022/11/14 09:23:09;;;;;;;16.70;4.07;;;;;;;;;;5024141;28;20056;-67
2022/11/14 09:25:35;;;;;;;11.88;3.30;;;;;;;;;;5040386;28;20064;-70
2022/11/14 09:28:06;;;;;;;13.38;3.92;;;;;;;;;;5034978;28;20056;-67
2022/11/14 09:30:33;;;;;;;13.18;3.63;;;;;;;;;;5033267;28;20502;-67
2022/11/14 09:33:03;;;;;;;14.65;4.25;;;;;;;;;;5026084;28;20454;-64
2022/11/14 09:35:30;;;;;;;12.60;4.40;;;;;;;;;;5038877;28;20179;-64
2022/11/14 09:38:01;;;;;;;12.63;4.20;;;;;;;;;;5033710;28;20215;-65
2022/11/14 09:40:28;;;;;;;11.90;4.47;;;;;;;;;;5041718;28;20041;-66
2022/11/14 09:42:56;;;;;;;16.77;4.22;;;;;;;;;;5041465;28;20475;-69
2022/11/14 09:45:24;;;;;;;12.93;4.40;;;;;;;;;;5043690;28;20274;-66
2022/11/14 09:47:55;;;;;;;13.77;3.70;;;;;;;;;;5028866;28;20667;-65
2022/11/14 09:50:30;;;;;;;18.70;3.80;;;;;;;;;;5029669;28;20057;-65
2022/11/14 09:53:23;;;;;;;15.40;3.78;;;;;;;;;;5037473;28;20047;-63
2022/11/14 09:55:50;;;;;;;10.95;2.92;;;;;;;;;;5030487;28;20095;-63
2022/11/14 09:58:19;;;;;;;13.52;2.80;;;;;;;;;;5029721;28;20119;-65
2022/11/14 10:00:55;;;;;;;8.50;2.97;;;;;;;;;;5042527;28;20049;-65
2022/11/14 10:03:58;;;;;;;8.43;2.88;;;;;;;;;;5029332;28;20057;-65
2022/11/14 10:06:46;;;;;;;9.32;2.40;;;;;;;;;;5034156;28;20045;-66
2022/11/14 10:09:14;;;;;;;13.30;2.67;;;;;;;;;;5030431;28;20072;-64
2022/11/14 10:11:52;;;;;;;10.00;3.25;;;;;;;;;;5032631;28;20559;-72
2022/11/14 10:14:40;;;;;;;8.82;2.60;;;;;;;;;;5044374;28;20596;-67
2022/11/14 10:17:27;;;;;;;12.63;2.83;;;;;;;;;;5033387;28;20048;-65
2022/11/14 10:20:11;;;;;;;15.80;2.70;;;;;;;;;;5036267;28;20041;-64
2022/11/14 10:22:46;;;;;;;8.13;2.63;;;;;;;;;;5031833;28;20048;-65
2022/11/14 10:25:43;;;;;;;10.38;2.97;;;;;;;;;;5031918;28;20137;-64
2022/11/14 10:28:31;;;;;;;8.45;3.25;;;;;;;;;;5029756;28;20053;-65
2022/11/14 10:31:12;;;;;;;13.55;2.13;;;;;;;;;;5039322;28;20045;-65
2022/11/14 10:33:52;;;;;;;12.60;2.38;;;;;;;;;;5029627;28;20316;-68
2022/11/14 10:36:47;;;;;;;8.60;2.60;;;;;;;;;;5033367;28;20125;-65
2022/11/14 10:39:16;;;;;;;;;;;;;;;;;;5028269;28;20041;-65
2022/11/14 10:41:43;;;;;;;11.63;2.58;;;;;;;;;;5037331;28;19925;-66
2022/11/14 10:44:14;;;;;;;13.10;2.60;;;;;;;;;;5046925;28;20041;-67
2022/11/14 10:46:50;;;;;;;14.75;2.50;;;;;;;;;;5043303;28;20071;-65
2022/11/14 10:49:20;;;;;;;12.85;2.65;;;;;;;;;;5031955;28;20511;-64
2022/11/14 10:51:51;;;;;;;11.55;2.67;;;;;;;;;;5046963;28;20101;-68
2022/11/14 10:54:40;;;;;;;12.93;2.58;;;;;;;;;;5031216;28;20037;-66
2022/11/14 10:57:15;;;;;;;8.15;2.35;;;;;;;;;;5018729;28;20491;-65
2022/11/14 10:59:42;;;;;;;16.25;2.67;;;;;;;;;;5044241;28;20041;-67
2022/11/14 11:02:09;;;;;;;11.32;2.80;;;;;;;;;;5043409;28;20077;-67
2022/11/14 11:04:39;;;;;;;10.93;2.85;;;;;;;;;;5033473;28;20070;-65
2022/11/14 11:07:08;;;;;;;21.70;3.00;;;;;;;;;;5036173;28;20059;-65
2022/11/14 11:12:36;;;;;;;8.23;2.70;;;;;;;;;;5032512;28;20060;-66
2022/11/14 11:15:22;;;;;;;13.38;2.63;;;;;;;;;;5035553;28;20037;-65
2022/11/14 11:18:32;;;;;;;13.10;2.92;;;;;;;;;;5042208;28;20078;-65
2022/11/14 11:21:10;;;;;;;9.02;3.17;;;;;;;;;;5026604;28;20050;-66
2022/11/14 11:23:52;;;;;;;8.27;2.60;;;;;;;;;;5048167;28;20494;-64
2022/11/14 11:26:27;;;;;;;9.95;2.55;;;;;;;;;;5028579;28;20671;-65
2022/11/14 11:29:11;;;;;;;5.43;2.38;;;;;;;;;;5034480;28;20041;-66
2022/11/14 11:31:46;;;;;;;13.48;2.75;;;;;;;;;;5030669;28;20417;-65
2022/11/14 11:34:12;;;;;;;12.73;2.95;;;;;;;;;;5034122;28;20049;-65
2022/11/14 11:36:50;;;;;;;17.27;3.17;;;;;;;;;;5029185;28;20045;-70
2022/11/14 11:39:26;;;;;;;11.82;2.60;;;;;;;;;;5046491;28;20075;-65
2022/11/14 11:41:56;;;;;;;13.65;2.80;;;;;;;;;;5032246;28;20053;-67
2022/11/14 11:44:32;;;;;;;9.93;2.53;;;;;;;;;;5035421;28;20050;-66
2022/11/14 11:47:01;;;;;;;11.95;3.08;;;;;;;;;;5040978;28;20049;-70
2022/11/14 11:49:46;;;;;;;8.02;2.55;;;;;;;;;;5039527;28;20132;-65
2022/11/14 11:52:23;;;;;;;10.40;2.70;;;;;;;;;;5023561;28;20061;-65
2022/11/14 11:55:13;;;;;;;10.35;2.53;;;;;;;;;;5040047;28;20045;-64
2022/11/14 11:57:47;;;;;;;9.32;2.70;;;;;;;;;;5034403;28;20483;-66
2022/11/14 12:00:21;;;;;;;10.67;2.63;;;;;;;;;;5038500;28;20083;-66
2022/11/14 12:02:49;;;;;;;12.63;3.17;;;;;;;;;;5038517;28;20049;-69
2022/11/14 12:05:35;;;;;;;8.07;2.80;;;;;;;;;;5036362;28;20060;-65
2022/11/14 12:08:03;;;;;;;9.82;2.67;;;;;;;;;;5032084;28;20052;-65
2022/11/14 12:10:35;;;;;;;9.32;2.72;;;;;;;;;;5033692;28;20049;-69
2022/11/14 12:13:07;;;;;;;11.35;2.85;;;;;;;;;;5035458;28;20468;-65
2022/11/14 12:15:48;;;;;;;11.93;2.45;;;;;;;;;;5032375;28;20056;-69
2022/11/14 12:18:26;;;;;;;8.82;2.53;;;;;;;;;;5030941;28;20053;-66
2022/11/14 12:21:04;;;;;;;9.60;2.83;;;;;;;;;;5028710;28;20049;-67
2022/11/14 12:24:05;;;;;;;15.02;3.20;;;;;;;;;;5029546;28;20045;-65
2022/11/14 12:26:58;;;;;;;12.55;2.50;;;;;;;;;;5028943;28;20034;-68
2022/11/14 12:29:44;;;;;;;15.18;2.40;;;;;;;;;;5032832;28;20155;-66
2022/11/14 12:32:17;;;;;;;13.45;2.55;;;;;;;;;;5025756;28;20534;-66
2022/11/14 12:34:45;;;;;;;13.90;2.70;;;;;;;;;;5030409;28;20426;-68
2022/11/14 12:37:33;;;;;;;11.68;2.25;;;;;;;;;;5031925;28;20046;-69
2022/11/14 12:40:02;;;;;;;12.75;2.75;;;;;;;;;;5028498;28;20415;-65
2022/11/14 12:42:28;;;;;;;7.78;2.03;;;;;;;;;;5028920;28;20050;-67
2022/11/14 12:44:54;;;;;;;9.07;2.10;;;;;;;;;;5030334;28;20076;-71
2022/11/14 12:47:27;;;;;;;9.23;1.83;;;;;;;;;;5034192;28;20038;-67
2022/11/14 12:49:55;;;;;;;10.07;2.50;;;;;;;;;;5045681;28;20048;-69
2022/11/14 12:52:39;;;;;;;8.35;2.15;;;;;;;;;;5032298;28;20296;-66
2022/11/14 12:55:25;;;;;;;8.23;2.13;;;;;;;;;;5036273;28;20134;-66
2022/11/14 12:58:10;;;;;;;9.35;2.17;;;;;;;;;;5042279;28;20037;-68
2022/11/14 13:00:45;;;;;;;10.88;1.92;;;;;;;;;;5043344;28;20139;-67
2022/11/14 13:03:29;;;;;;;6.20;1.63;;;;;;;;;;5043289;28;20051;-68
2022/11/14 13:06:21;;;;;;;4.55;1.77;;;;;;;;;;5040456;28;20049;-70
2022/11/14 13:09:14;;;;;;;9.68;2.00;;;;;;;;;;5042072;28;20126;-70
2022/11/14 13:23:28;;;;;;;7.95;1.80;;;;;;;;;;5032602;28;20063;-67
2022/11/14 13:26:29;;;;;;;6.43;1.80;;;;;;;;;;5043743;28;20052;-67
2022/11/14 13:28:56;;;;;;;6.88;2.08;;;;;;;;;;5011701;28;20049;-66
2022/11/14 13:31:34;;;;;;;5.25;2.00;;;;;;;;;;5028250;28;20059;-70
2022/11/14 13:34:38;;;;;;;6.45;2.00;;;;;;;;;;5027410;28;20111;-75
2022/11/14 13:37:36;;;;;;;12.30;2.33;;;;;;;;;;5025140;28;20516;-67
2022/11/14 13:40:42;;;;;;;7.35;1.70;;;;;;;;;;5026725;28;20041;-69
2022/11/14 13:43:28;;;;;;;7.00;1.77;;;;;;;;;;5029006;28;20045;-66
2022/11/14 13:46:15;;;;;;;6.53;1.98;;;;;;;;;;5035924;28;20048;-68
2022/11/14 13:49:16;;;;;;;6.38;1.88;;;;;;;;;;5038525;28;20091;-67
2022/11/14 13:51:43;;;;;;;7.72;2.10;;;;;;;;;;5025454;28;20037;-70
2022/11/14 13:54:14;;;;;;;12.93;2.33;;;;;;;;;;5034197;28;20137;-67
2022/11/14 13:57:04;;;;;;;8.77;2.40;;;;;;;;;;5031453;28;20053;-67
2022/11/14 13:59:56;;;;;;;9.70;2.10;;;;;;;;;;5034369;28;20060;-68
2022/11/14 14:02:28;;;;;;;14.30;2.38;;;;;;;;;;5033229;28;20052;-71
2022/11/14 14:05:02;;;;;;;10.77;2.78;;;;;;;;;;5036335;28;20128;-70
2022/11/14 14:08:06;;;;;;;9.50;2.60;;;;;;;;;;5027050;28;20099;-68
2022/11/14 14:10:51;;;;;;;13.00;3.20;;;;;;;;;;5031595;28;20045;-69
2022/11/14 14:13:39;;;;;;;14.25;2.33;;;;;;;;;;5038736;28;20052;-66
2022/11/14 14:16:24;;;;;;;9.65;2.30;;;;;;;;;;5034592;28;20057;-66
2022/11/14 14:19:17;;;;;;;6.05;2.03;;;;;;;;;;5034197;28;20049;-67
2022/11/14 14:22:01;;;;;;;5.70;2.33;;;;;;;;;;5036642;28;20144;-70
2022/11/14 14:24:45;;;;;;;5.45;2.10;;;;;;;;;;5043809;28;20486;-67
2022/11/14 14:27:24;;;;;;;9.30;2.13;;;;;;;;;;5042756;28;20103;-67
2022/11/14 14:30:23;;;;;;;18.20;2.40;;;;;;;;;;5041639;28;20041;-70
2022/11/14 14:33:12;;;;;;;9.57;2.53;;;;;;;;;;5036959;28;20037;-70
2022/11/14 14:35:49;;;;;;;16.42;2.95;;;;;;;;;;5037342;28;20045;-66
2022/11/14 14:38:26;;;;;;;10.90;2.47;;;;;;;;;;5034271;28;20828;-67
2022/11/14 14:40:56;;;;;;;11.68;2.72;;;;;;;;;;5036858;28;20057;-68
2022/11/14 14:43:31;;;;;;;9.73;2.50;;;;;;;;;;5036762;28;20055;-69
2022/11/14 14:45:57;;;;;;;6.82;2.33;;;;;;;;;;5033381;28;20044;-69
2022/11/14 14:48:26;;;;;;;10.50;2.60;;;;;;;;;;5041756;28;20552;-70
2022/11/14 14:50:57;;;;;;;13.02;3.00;;;;;;;;;;5045399;28;20057;-70
2022/11/14 14:53:29;;;;;;;8.98;2.47;;;;;;;;;;5038239;28;20041;-69
2022/11/14 14:56:27;;;;;;;8.05;2.78;;;;;;;;;;5031696;28;20520;-70
2022/11/14 14:58:53;;;;;;;8.77;2.90;;;;;;;;;;5039090;28;20056;-67
2022/11/14 15:01:31;;;;;;;16.10;2.88;;;;;;;;;;5038334;28;20238;-68
2022/11/14 15:04:07;;;;;;;10.15;2.70;;;;;;;;;;5037278;28;20132;-69
2022/11/14 15:06:36;;;;;;;6.93;2.65;;;;;;;;;;5032226;28;20060;-71
2022/11/14 15:09:10;;;;;;;12.25;2.78;;;;;;;;;;5041968;28;20045;-72
2022/11/14 15:11:42;;;;;;;;;;;;;;;;;;5028693;28;20057;-67